Time;durP1;ratioP1;P1;durP2;ratioP2;P2;SDS_P1;SDS_P2;PMS_P1;PMS_P2;Temp;Humidity;BMP_temperature;BMP_pressure;BME280_temperature;BME280_humidity;BME280_pressure;Samples;Min_cycle;Max_cycle;Signal;HPM_P1;HPM_P2
2022/06/30 00:02:04;;;;;;;5.90;4.60;;;;;;;25.71;46.71;101201.00;5030684;28;20038;-72
2022/06/30 00:04:30;;;;;;;5.85;4.15;;;;;;;25.66;47.11;101206.66;5030168;28;20073;-72
2022/06/30 00:07:13;;;;;;;6.25;4.60;;;;;;;25.78;46.70;101195.06;5029921;28;20069;-71
2022/06/30 00:09:40;;;;;;;6.07;4.78;;;;;;;25.69;47.03;101200.50;5031651;28;20033;-71
2022/06/30 00:12:06;;;;;;;7.60;4.63;;;;;;;25.63;47.57;101195.47;5034512;28;20148;-72
2022/06/30 00:14:32;;;;;;;4.70;3.97;;;;;;;25.44;48.35;101195.69;5033848;28;20033;-73
2022/06/30 00:16:57;;;;;;;9.05;4.35;;;;;;;25.38;48.45;101190.59;5033974;28;20543;-70
2022/06/30 00:19:23;;;;;;;8.40;4.63;;;;;;;25.45;48.37;101188.25;5033569;28;20084;-73
2022/06/30 00:21:48;;;;;;;7.25;4.93;;;;;;;25.46;48.70;101187.13;5023863;28;20026;-71
2022/06/30 00:24:13;;;;;;;10.60;4.57;;;;;;;25.32;49.25;101186.38;5014274;28;20034;-72
2022/06/30 00:26:39;;;;;;;8.52;4.93;;;;;;;25.28;49.04;101184.25;5015735;28;20521;-72
2022/06/30 00:29:04;;;;;;;9.48;5.03;;;;;;;25.27;49.00;101181.81;5033721;28;20038;-71
2022/06/30 00:31:30;;;;;;;5.15;4.38;;;;;;;25.23;48.96;101183.56;5033624;28;20045;-71
2022/06/30 00:33:55;;;;;;;8.85;4.78;;;;;;;25.32;48.41;101181.66;5033432;28;20029;-71
2022/06/30 00:36:21;;;;;;;5.63;4.32;;;;;;;25.25;48.53;101175.81;5034039;28;20087;-72
2022/06/30 00:38:46;;;;;;;5.28;4.68;;;;;;;25.19;48.65;101177.91;5033449;28;20025;-71
2022/06/30 00:41:11;;;;;;;4.70;4.03;;;;;;;25.26;48.51;101174.69;5033518;28;20044;-72
2022/06/30 00:43:47;;;;;;;6.82;4.82;;;;;;;25.26;48.33;101177.44;5033484;28;20034;-73
2022/06/30 00:46:13;;;;;;;6.40;5.68;;;;;;;25.20;48.61;101187.75;5033391;28;20412;-73
2022/06/30 00:48:40;;;;;;;5.40;4.82;;;;;;;25.18;48.39;101184.50;5033177;28;20029;-70
2022/06/30 00:51:05;;;;;;;5.47;4.82;;;;;;;25.14;48.44;101182.69;5033498;28;20509;-71
2022/06/30 00:53:41;;;;;;;8.25;5.53;;;;;;;25.17;48.06;101176.56;5031664;28;20049;-71
2022/06/30 00:56:08;;;;;;;6.38;5.57;;;;;;;25.03;48.41;101173.91;5033058;28;20037;-70
2022/06/30 00:58:39;;;;;;;10.18;6.40;;;;;;;25.03;48.39;101173.06;5033051;28;20030;-71
2022/06/30 01:01:07;;;;;;;8.48;6.22;;;;;;;24.99;48.80;101163.81;5033025;28;20534;-71
2022/06/30 01:03:34;;;;;;;9.13;6.38;;;;;;;25.03;48.58;101157.41;5031934;28;20040;-73
2022/06/30 01:06:03;;;;;;;6.85;6.15;;;;;;;25.01;48.40;101156.91;5032870;28;20037;-73
2022/06/30 01:08:30;;;;;;;7.00;6.30;;;;;;;24.98;48.56;101149.25;5032714;28;20057;-72
2022/06/30 01:13:42;;;;;;;7.95;6.78;;;;;;;25.03;48.34;101157.41;5032800;28;20068;-72
2022/06/30 01:16:07;;;;;;;6.90;6.10;;;;;;;25.04;48.36;101158.22;5032571;28;20045;-73
2022/06/30 01:18:36;;;;;;;8.63;7.22;;;;;;;25.00;48.30;101162.72;5031949;28;20033;-73
2022/06/30 01:21:02;;;;;;;7.43;6.47;;;;;;;24.97;48.39;101155.06;5028955;28;20053;-72
2022/06/30 01:23:27;;;;;;;8.00;6.68;;;;;;;25.00;48.55;101159.97;5012659;28;20034;-69
2022/06/30 01:25:53;;;;;;;8.45;7.45;;;;;;;25.00;48.26;101163.50;5012770;28;20461;-71
2022/06/30 01:28:19;;;;;;;9.00;7.43;;;;;;;25.05;48.02;101163.41;5026620;28;20498;-71
2022/06/30 01:30:44;;;;;;;11.93;8.60;;;;;;;24.90;48.58;101158.25;5032085;28;20144;-70
2022/06/30 01:33:10;;;;;;;8.65;7.75;;;;;;;24.94;48.52;101158.47;5032907;28;20029;-73
2022/06/30 01:35:35;;;;;;;8.35;7.53;;;;;;;25.06;48.05;101159.50;5032327;28;20072;-72
2022/06/30 01:38:01;;;;;;;9.00;8.07;;;;;;;24.91;48.64;101153.56;5032146;28;20038;-71
2022/06/30 01:40:30;;;;;;;9.85;8.50;;;;;;;25.15;47.78;101151.31;5032548;28;20042;-71
2022/06/30 01:42:56;;;;;;;10.35;7.35;;;;;;;25.19;47.88;101152.31;5032355;28;20437;-72
2022/06/30 01:45:22;;;;;;;9.95;7.82;;;;;;;24.92;47.99;101150.50;5032456;28;20159;-73
2022/06/30 01:47:50;;;;;;;9.00;8.02;;;;;;;25.14;47.77;101147.75;5032127;28;20110;-75
2022/06/30 01:50:21;;;;;;;9.70;7.57;;;;;;;25.15;47.90;101141.13;5032257;28;20029;-73
2022/06/30 01:52:47;;;;;;;9.68;7.60;;;;;;;25.26;47.38;101142.47;5032027;28;20212;-71
2022/06/30 01:55:13;;;;;;;10.40;7.75;;;;;;;25.42;46.78;101145.66;5031957;28;20033;-72
2022/06/30 01:57:39;;;;;;;10.27;6.95;;;;;;;25.58;46.13;101138.63;5032218;28;20034;-73
2022/06/30 02:00:07;;;;;;;8.65;7.70;;;;;;;25.46;46.15;101138.41;5032331;28;20048;-72
2022/06/30 02:02:32;;;;;;;7.97;7.13;;;;;;;25.58;45.97;101137.78;5032049;28;20117;-72
2022/06/30 02:04:58;;;;;;;9.10;6.70;;;;;;;25.33;46.86;101139.28;5031884;28;20144;-70
2022/06/30 02:07:23;;;;;;;8.38;7.15;;;;;;;25.52;46.08;101133.56;5030027;28;20037;-74
2022/06/30 02:09:53;;;;;;;7.82;6.38;;;;;;;25.53;45.60;101137.94;5031507;28;20075;-71
2022/06/30 02:15:05;;;;;;;14.07;6.82;;;;;;;25.23;46.56;101132.13;5031754;28;20511;-73
2022/06/30 02:17:30;;;;;;;8.07;6.30;;;;;;;25.21;46.52;101139.06;5030373;28;20029;-72
2022/06/30 02:19:56;;;;;;;8.50;6.57;;;;;;;25.31;46.86;101136.03;5031543;28;20421;-72
2022/06/30 02:22:21;;;;;;;6.88;6.18;;;;;;;25.31;46.67;101137.97;5016964;28;20034;-72
2022/06/30 02:24:46;;;;;;;9.35;6.88;;;;;;;25.23;46.59;101140.38;5011718;28;20038;-72
2022/06/30 02:27:12;;;;;;;7.38;6.10;;;;;;;25.21;46.51;101144.56;5018634;28;20033;-72
2022/06/30 02:29:38;;;;;;;13.30;7.13;;;;;;;25.30;46.06;101153.66;5031411;28;20037;-73
2022/06/30 02:32:04;;;;;;;8.27;6.88;;;;;;;25.26;46.48;101145.22;5029165;28;20585;-72
2022/06/30 02:34:30;;;;;;;8.38;6.55;;;;;;;25.16;46.66;101144.66;5031318;28;20375;-71
2022/06/30 02:36:56;;;;;;;7.45;6.68;;;;;;;25.25;46.06;101151.06;5031165;28;20464;-72
2022/06/30 02:39:22;;;;;;;7.28;6.60;;;;;;;25.20;46.18;101149.25;5031689;28;20108;-71
2022/06/30 02:41:47;;;;;;;7.63;6.80;;;;;;;25.25;46.03;101148.31;5031209;28;20029;-70
2022/06/30 02:44:13;;;;;;;7.78;6.38;;;;;;;25.08;46.54;101140.75;5031064;28;20033;-71
2022/06/30 02:46:38;;;;;;;9.13;6.32;;;;;;;25.08;46.58;101145.47;5030984;28;20374;-71
2022/06/30 02:49:04;;;;;;;7.43;6.72;;;;;;;24.94;47.16;101148.25;5031036;28;20036;-71
2022/06/30 02:51:30;;;;;;;7.28;6.57;;;;;;;24.83;47.22;101144.16;5031411;28;20052;-72
2022/06/30 02:53:55;;;;;;;7.70;6.57;;;;;;;24.83;47.00;101141.41;5030695;28;20033;-72
2022/06/30 02:56:21;;;;;;;7.10;6.40;;;;;;;24.84;47.54;101143.03;5030738;28;20041;-70
2022/06/30 02:58:47;;;;;;;8.98;6.70;;;;;;;24.75;47.43;101144.91;5030823;28;20034;-72
2022/06/30 03:01:13;;;;;;;7.38;6.15;;;;;;;24.88;46.86;101143.22;5030733;28;20045;-71
2022/06/30 03:03:39;;;;;;;7.60;6.72;;;;;;;24.85;47.33;101150.16;5030751;28;20064;-71
2022/06/30 03:06:04;;;;;;;9.30;7.60;;;;;;;24.89;47.28;101150.31;5030970;28;20025;-72
2022/06/30 03:08:30;;;;;;;8.10;6.82;;;;;;;24.72;47.77;101156.53;5030711;28;20411;-72
2022/06/30 03:10:55;;;;;;;8.75;7.47;;;;;;;24.67;47.57;101169.56;5030479;28;20038;-71
2022/06/30 03:13:21;;;;;;;7.90;6.97;;;;;;;24.75;47.22;101164.13;5030756;28;20033;-71
2022/06/30 03:15:47;;;;;;;7.65;6.78;;;;;;;24.73;47.96;101171.06;5030212;28;20041;-71
2022/06/30 03:18:12;;;;;;;7.72;6.90;;;;;;;24.82;47.16;101164.53;5031287;28;20021;-71
2022/06/30 03:20:38;;;;;;;8.95;7.20;;;;;;;24.69;47.37;101161.78;5045408;28;20040;-71
2022/06/30 03:23:03;;;;;;;7.95;7.15;;;;;;;24.66;47.75;101159.66;5010648;28;20517;-70
2022/06/30 03:25:29;;;;;;;7.88;7.07;;;;;;;24.69;47.96;101154.34;5010727;28;20460;-70
2022/06/30 03:27:54;;;;;;;7.63;6.82;;;;;;;24.72;47.78;101150.19;5028100;28;20049;-71
2022/06/30 03:30:19;;;;;;;12.73;6.68;;;;;;;24.75;47.56;101152.31;5030993;28;20052;-72
2022/06/30 03:32:45;;;;;;;8.85;6.47;;;;;;;24.44;48.11;101157.69;5030226;28;20045;-70
2022/06/30 03:35:10;;;;;;;8.00;7.13;;;;;;;24.52;48.28;101162.47;5030556;28;20060;-72
2022/06/30 03:37:35;;;;;;;12.48;6.70;;;;;;;24.66;47.86;101159.66;5030358;28;20049;-71
2022/06/30 03:40:01;;;;;;;9.20;6.82;;;;;;;24.64;47.98;101156.41;5030391;28;20257;-73
2022/06/30 03:42:26;;;;;;;13.55;7.50;;;;;;;24.42;48.59;101159.94;5030886;28;20462;-73
2022/06/30 03:44:52;;;;;;;11.82;8.02;;;;;;;24.47;48.49;101164.53;5032660;28;20041;-71
2022/06/30 03:47:17;;;;;;;9.13;7.13;;;;;;;24.57;48.36;101156.84;5049817;28;20033;-72
2022/06/30 03:49:43;;;;;;;8.98;6.88;;;;;;;24.61;47.90;101152.34;5035267;28;20053;-71
2022/06/30 03:52:08;;;;;;;10.15;7.35;;;;;;;24.63;48.21;101143.81;5034516;28;20049;-72
2022/06/30 03:54:34;;;;;;;7.78;6.75;;;;;;;24.79;47.37;101143.16;5034139;28;20025;-71
2022/06/30 03:56:59;;;;;;;9.15;6.93;;;;;;;24.56;48.33;101141.47;5034502;28;20037;-72
2022/06/30 03:59:25;;;;;;;7.95;7.07;;;;;;;24.94;47.17;101139.22;5034125;28;20034;-73
2022/06/30 04:01:50;;;;;;;6.85;6.15;;;;;;;24.69;47.75;101148.03;5031041;28;20022;-71
2022/06/30 04:04:16;;;;;;;8.63;7.28;;;;;;;24.70;47.65;101153.25;5033852;28;20041;-70
2022/06/30 04:06:41;;;;;;;11.77;7.63;;;;;;;24.72;47.96;101142.78;5032124;28;20037;-71
2022/06/30 04:09:07;;;;;;;8.00;7.18;;;;;;;24.49;48.76;101151.28;5020065;28;20022;-72
2022/06/30 04:11:32;;;;;;;7.75;6.65;;;;;;;24.65;48.01;101142.34;5019380;28;20041;-72
2022/06/30 04:13:58;;;;;;;8.25;6.38;;;;;;;24.35;49.40;101151.31;5033959;28;20040;-71
2022/06/30 04:16:23;;;;;;;10.95;6.78;;;;;;;24.55;48.57;101145.34;5033793;28;20056;-72
2022/06/30 04:18:49;;;;;;;9.73;7.53;;;;;;;24.54;48.74;101140.16;5033651;28;20033;-72
2022/06/30 04:21:16;;;;;;;10.60;7.85;;;;;;;24.66;48.18;101143.19;5022331;28;20509;-71
2022/06/30 04:23:42;;;;;;;14.02;7.40;;;;;;;24.74;48.36;101146.03;5013620;28;20117;-71
2022/06/30 04:26:08;;;;;;;8.13;7.00;;;;;;;24.77;47.42;101134.41;5016443;28;20037;-72
2022/06/30 04:28:33;;;;;;;12.68;8.07;;;;;;;24.96;47.46;101137.75;5033617;28;20525;-70
2022/06/30 04:33:43;;;;;;;8.70;7.90;;;;;;;24.83;47.97;101130.41;5029080;28;20032;-71
2022/06/30 04:36:08;;;;;;;10.98;7.63;;;;;;;24.96;47.50;101137.75;5014115;28;20026;-72
2022/06/30 04:38:34;;;;;;;7.63;6.65;;;;;;;25.13;47.23;101131.56;5013482;28;20041;-72
2022/06/30 04:43:44;;;;;;;9.95;7.03;;;;;;;24.93;48.19;101127.41;5013488;28;20041;-73
2022/06/30 04:46:10;;;;;;;10.95;7.60;;;;;;;25.08;47.80;101129.75;5013479;28;20037;-72
2022/06/30 04:48:35;;;;;;;9.48;7.70;;;;;;;25.19;47.36;101127.56;5013511;28;20433;-72
2022/06/30 04:51:02;;;;;;;17.95;8.70;;;;;;;25.09;47.38;101125.06;5013824;28;20034;-72
2022/06/30 04:53:27;;;;;;;9.35;7.30;;;;;;;24.96;47.88;101118.50;5013325;28;20081;-72
2022/06/30 04:55:53;;;;;;;9.35;7.95;;;;;;;25.05;48.02;101119.38;5023568;28;20061;-73
2022/06/30 04:58:18;;;;;;;15.80;7.78;;;;;;;25.15;47.99;101119.13;5032952;28;20111;-71
2022/06/30 05:00:44;;;;;;;8.95;7.57;;;;;;;25.39;47.11;101121.50;5032843;28;20030;-71
2022/06/30 05:03:09;;;;;;;10.60;7.00;;;;;;;25.42;46.82;101112.63;5033687;28;20029;-71
2022/06/30 05:05:35;;;;;;;9.35;7.63;;;;;;;25.52;46.95;101109.59;5033171;28;20050;-73
2022/06/30 05:08:02;;;;;;;8.70;7.28;;;;;;;25.57;46.87;101101.19;5031340;28;20025;-73
2022/06/30 05:10:27;;;;;;;10.55;7.55;;;;;;;25.50;47.33;101100.03;5032134;28;20409;-73
2022/06/30 05:12:53;;;;;;;8.35;7.25;;;;;;;25.59;47.16;101098.16;5032714;28;20084;-67
2022/06/30 05:15:18;;;;;;;11.93;7.47;;;;;;;25.73;46.71;101104.34;5033059;28;20034;-66
2022/06/30 05:17:43;;;;;;;8.88;7.10;;;;;;;25.66;47.26;101103.97;5031853;28;20044;-70
2022/06/30 05:20:09;;;;;;;9.25;7.57;;;;;;;25.70;47.35;101103.03;5032306;28;20033;-70
2022/06/30 05:22:35;;;;;;;10.43;8.05;;;;;;;25.69;47.28;101103.38;5032171;28;20397;-71
2022/06/30 05:27:46;;;;;;;9.57;7.75;;;;;;;25.92;46.96;101102.94;5029677;28;20121;-69
2022/06/30 05:30:13;;;;;;;14.48;8.82;;;;;;;25.83;47.56;101104.84;5032601;28;20031;-70
2022/06/30 05:32:38;;;;;;;11.02;8.43;;;;;;;25.88;47.21;101106.66;5031738;28;20061;-71
2022/06/30 05:35:05;;;;;;;9.40;8.23;;;;;;;25.92;47.46;101104.88;5032033;28;20044;-70
2022/06/30 05:37:30;;;;;;;9.40;7.95;;;;;;;26.15;46.83;101109.16;5032306;28;20112;-71
2022/06/30 05:39:55;;;;;;;9.55;8.55;;;;;;;25.99;47.57;101100.50;5029989;28;20454;-69
2022/06/30 05:42:21;;;;;;;10.20;8.48;;;;;;;25.90;48.13;101107.94;5031355;28;20037;-69
2022/06/30 05:44:46;;;;;;;13.43;8.93;;;;;;;26.05;47.82;101095.66;5046755;28;20033;-69
2022/06/30 05:47:12;;;;;;;11.48;8.68;;;;;;;26.15;47.28;101095.38;5030884;28;20513;-70
2022/06/30 05:49:37;;;;;;;10.07;9.02;;;;;;;26.08;47.80;101092.28;5031758;28;20552;-70
2022/06/30 05:52:03;;;;;;;14.13;9.30;;;;;;;26.19;47.71;101098.28;5030179;28;20053;-70
2022/06/30 05:54:29;;;;;;;11.75;9.85;;;;;;;26.29;47.90;101100.72;5030896;28;20038;-71
2022/06/30 05:56:55;;;;;;;11.23;9.65;;;;;;;26.29;47.95;101104.31;5030802;28;20049;-70
2022/06/30 05:59:20;;;;;;;11.60;9.23;;;;;;;26.50;47.51;101110.78;5031525;28;20049;-70
2022/06/30 06:01:46;;;;;;;12.23;10.93;;;;;;;26.42;47.70;101108.00;5031355;28;20528;-70
2022/06/30 06:04:11;;;;;;;11.85;10.65;;;;;;;26.41;48.13;101109.97;5030825;28;20036;-70
2022/06/30 06:06:36;;;;;;;11.40;10.18;;;;;;;26.39;48.33;101101.22;5031204;28;20060;-69
2022/06/30 06:09:02;;;;;;;17.35;11.45;;;;;;;26.57;48.06;101108.34;5031044;28;20017;-69
2022/06/30 06:11:28;;;;;;;15.23;11.20;;;;;;;26.76;47.18;101097.00;5030739;28;20067;-70
2022/06/30 06:13:53;;;;;;;13.32;11.48;;;;;;;26.85;47.24;101106.06;5031339;28;20413;-70
2022/06/30 06:16:19;;;;;;;13.18;11.40;;;;;;;26.92;47.57;101092.59;5030686;28;20113;-68
2022/06/30 06:18:44;;;;;;;18.05;12.35;;;;;;;26.80;48.03;101100.72;5030565;28;20024;-68
2022/06/30 06:21:09;;;;;;;13.60;11.93;;;;;;;27.02;47.35;101100.53;5030829;28;20469;-70
2022/06/30 06:23:35;;;;;;;14.68;13.18;;;;;;;27.02;47.36;101111.56;5030552;28;20049;-69
2022/06/30 06:26:00;;;;;;;14.18;12.68;;;;;;;27.10;47.41;101107.97;5030334;28;20227;-70
2022/06/30 06:31:10;;;;;;;15.85;13.75;;;;;;;27.08;47.64;101107.50;5030058;28;20558;-69
2022/06/30 06:33:35;;;;;;;21.20;13.85;;;;;;;27.23;47.01;101106.94;5030701;28;20021;-71
2022/06/30 06:36:02;;;;;;;15.85;14.13;;;;;;;27.34;47.10;101107.44;5030932;28;20048;-69
2022/06/30 06:38:27;;;;;;;19.88;13.57;;;;;;;27.41;46.97;101113.25;5030398;28;20022;-69
2022/06/30 06:40:53;;;;;;;20.17;14.90;;;;;;;27.41;47.24;101118.75;5027870;28;20044;-69
2022/06/30 06:43:18;;;;;;;18.75;15.52;;;;;;;27.21;47.35;101106.47;5030074;28;20052;-69
2022/06/30 06:45:44;;;;;;;18.70;14.90;;;;;;;27.62;46.66;101105.81;5029528;28;20478;-69
2022/06/30 06:48:09;;;;;;;18.35;16.00;;;;;;;27.67;46.70;101105.66;5029790;28;20544;-69
2022/06/30 06:50:35;;;;;;;16.25;14.15;;;;;;;27.87;46.29;101107.66;5028685;28;20076;-70
2022/06/30 06:53:03;;;;;;;19.92;16.70;;;;;;;27.98;46.43;101113.63;5029455;28;20041;-71
2022/06/30 06:55:29;;;;;;;18.38;16.23;;;;;;;28.10;45.75;101117.28;5029554;28;20390;-71
2022/06/30 06:57:54;;;;;;;17.23;15.02;;;;;;;28.09;45.96;101125.91;5028371;28;20029;-69
2022/06/30 07:00:20;;;;;;;18.17;15.68;;;;;;;28.00;46.41;101131.50;5030194;28;20033;-70
2022/06/30 07:02:45;;;;;;;18.95;15.38;;;;;;;27.94;46.70;101127.28;5029374;28;20037;-71
2022/06/30 07:05:11;;;;;;;18.85;15.45;;;;;;;28.19;46.23;101134.59;5029650;28;20477;-70
2022/06/30 07:07:37;;;;;;;18.08;16.02;;;;;;;28.35;45.59;101143.13;5029360;28;20421;-69
2022/06/30 07:10:05;;;;;;;18.08;15.38;;;;;;;28.32;45.99;101141.03;5027853;28;20528;-71
2022/06/30 07:12:31;;;;;;;24.27;16.63;;;;;;;27.89;46.86;101141.28;5030104;28;20025;-69
2022/06/30 07:14:56;;;;;;;22.60;16.90;;;;;;;27.84;46.60;101141.47;5028638;28;20041;-71
2022/06/30 07:17:22;;;;;;;17.85;15.70;;;;;;;28.23;46.29;101146.63;5023217;28;20379;-70
2022/06/30 07:19:47;;;;;;;17.38;15.50;;;;;;;28.48;45.69;101133.75;5025499;28;20041;-70
2022/06/30 07:22:13;;;;;;;18.77;16.65;;;;;;;28.64;45.28;101134.75;5024210;28;20500;-68
2022/06/30 07:24:39;;;;;;;21.25;15.38;;;;;;;28.71;44.46;101134.22;5025331;28;20037;-72
2022/06/30 07:27:04;;;;;;;20.10;15.52;;;;;;;28.50;45.12;101137.78;5025194;28;20033;-69
2022/06/30 07:29:30;;;;;;;20.08;15.80;;;;;;;28.49;44.87;101141.72;5025580;28;20456;-72
2022/06/30 07:31:56;;;;;;;16.65;14.70;;;;;;;28.83;43.83;101139.81;5025924;28;20072;-69
2022/06/30 07:34:21;;;;;;;20.85;14.77;;;;;;;28.98;43.52;101141.94;5026084;28;20053;-70
2022/06/30 07:36:47;;;;;;;21.45;15.38;;;;;;;28.94;43.85;101141.81;5026973;28;20037;-68
2022/06/30 07:39:12;;;;;;;16.83;15.02;;;;;;;29.17;43.47;101131.19;5025883;28;20060;-69
2022/06/30 07:41:38;;;;;;;17.98;13.63;;;;;;;29.10;44.03;101123.41;5027063;28;20041;-69
2022/06/30 07:44:04;;;;;;;18.23;13.95;;;;;;;29.31;42.61;101126.94;5027482;28;20037;-70
2022/06/30 07:46:30;;;;;;;14.52;13.02;;;;;;;29.29;42.27;101132.00;5026093;28;20049;-69
2022/06/30 07:48:55;;;;;;;17.88;13.05;;;;;;;29.52;42.14;101133.19;5025450;28;20045;-71
2022/06/30 07:51:21;;;;;;;15.20;12.90;;;;;;;29.65;41.75;101134.03;5023328;28;20125;-69
2022/06/30 07:53:47;;;;;;;14.88;12.02;;;;;;;29.59;41.57;101142.88;5024182;28;20036;-72
2022/06/30 07:56:13;;;;;;;11.45;9.23;;;;;;;29.41;39.94;101142.28;5025982;28;20025;-69
2022/06/30 07:58:38;;;;;;;13.95;10.63;;;;;;;29.46;40.26;101150.41;5025884;28;20087;-67
2022/06/30 08:01:04;;;;;;;11.73;10.43;;;;;;;29.73;39.67;101152.53;5024547;28;20489;-69
2022/06/30 08:03:29;;;;;;;12.98;10.65;;;;;;;29.50;40.68;101154.09;5023688;28;20045;-71
2022/06/30 08:05:55;;;;;;;12.05;9.60;;;;;;;29.68;39.35;101154.69;5025709;28;20042;-68
2022/06/30 08:08:20;;;;;;;11.48;9.60;;;;;;;29.83;39.43;101165.91;5025888;28;20029;-69
2022/06/30 08:10:46;;;;;;;10.25;9.20;;;;;;;30.06;39.32;101155.16;5025483;28;20556;-69
2022/06/30 08:13:11;;;;;;;12.60;9.52;;;;;;;30.11;39.61;101160.47;5024495;28;20432;-68
2022/06/30 08:15:38;;;;;;;13.88;9.77;;;;;;;30.15;39.61;101161.41;5040638;28;20041;-71
2022/06/30 08:18:05;;;;;;;13.30;10.38;;;;;;;30.15;39.59;101159.41;5025975;28;20037;-69
2022/06/30 08:20:31;;;;;;;12.38;10.13;;;;;;;30.43;39.27;101165.06;5026039;28;20045;-70
2022/06/30 08:22:56;;;;;;;12.82;10.93;;;;;;;30.32;40.40;101166.72;5022348;28;20554;-69
2022/06/30 08:25:22;;;;;;;18.75;11.95;;;;;;;30.59;39.97;101160.38;5006680;28;20431;-69
2022/06/30 08:27:48;;;;;;;11.55;9.88;;;;;;;30.66;40.22;101162.56;5022307;28;20037;-69
2022/06/30 08:30:13;;;;;;;15.68;10.90;;;;;;;30.73;40.29;101169.13;5028019;28;20033;-69
2022/06/30 08:32:40;;;;;;;13.05;11.07;;;;;;;30.87;39.56;101171.53;5029391;28;20041;-69
2022/06/30 08:35:05;;;;;;;13.35;11.07;;;;;;;30.79;39.50;101167.72;5027989;28;20037;-69
2022/06/30 08:37:31;;;;;;;12.55;11.25;;;;;;;30.63;39.87;101169.63;5030066;28;20042;-70
2022/06/30 08:42:41;;;;;;;13.65;8.82;;;;;;;30.22;39.83;101164.38;5029739;28;20033;-70
2022/06/30 08:45:14;;;;;;;11.52;8.02;;;;;;;29.33;41.26;101171.72;5029528;28;20032;-70
2022/06/30 08:47:47;;;;;;;9.13;8.23;;;;;;;30.13;40.00;101177.56;5028630;28;20136;-68
2022/06/30 08:50:15;;;;;;;11.27;9.05;;;;;;;29.81;40.88;101176.53;5027083;28;20037;-69
2022/06/30 08:52:45;;;;;;;14.55;9.05;;;;;;;29.50;41.09;101182.59;5029299;28;20048;-70
2022/06/30 08:55:13;;;;;;;15.15;10.90;;;;;;;29.28;41.78;101185.78;5028619;28;20262;-70
2022/06/30 08:57:41;;;;;;;12.45;9.45;;;;;;;29.72;40.76;101194.44;5028753;28;20021;-71
2022/06/30 09:00:07;;;;;;;10.45;9.32;;;;;;;30.08;41.22;101194.44;5028912;28;20037;-70
2022/06/30 09:02:33;;;;;;;13.35;10.48;;;;;;;29.75;40.97;101199.28;5028761;28;20095;-70
2022/06/30 09:04:58;;;;;;;21.40;13.25;;;;;;;29.02;42.83;101198.22;5027898;28;20497;-71
2022/06/30 09:07:24;;;;;;;14.55;12.38;;;;;;;29.82;41.09;101203.09;5027437;28;20295;-69
2022/06/30 09:09:49;;;;;;;25.00;14.40;;;;;;;29.87;41.04;101202.06;5026532;28;20121;-70
2022/06/30 09:12:16;;;;;;;19.38;14.82;;;;;;;29.78;41.99;101207.69;5028258;28;20060;-71
2022/06/30 09:14:46;;;;;;;21.95;16.02;;;;;;;29.61;42.13;101207.88;5028451;28;20033;-70
2022/06/30 09:17:24;;;;;;;22.10;16.00;;;;;;;29.69;41.49;101201.44;5026492;28;20474;-70
2022/06/30 09:19:53;;;;;;;16.77;13.77;;;;;;;29.67;40.92;101203.75;5028150;28;20032;-70
2022/06/30 09:22:22;;;;;;;24.42;14.50;;;;;;;30.35;39.08;101198.50;5027686;28;20033;-68
2022/06/30 09:25:20;;;;;;;17.13;14.07;;;;;;;30.87;36.72;101202.06;5027716;28;20110;-70
2022/06/30 09:27:47;;;;;;;16.85;13.02;;;;;;;30.30;38.51;101194.81;5026756;28;20053;-70
2022/06/30 09:30:15;;;;;;;15.23;11.98;;;;;;;30.56;37.64;101199.13;5028214;28;20384;-71
2022/06/30 09:32:50;;;;;;;17.45;12.98;;;;;;;30.25;38.18;101203.31;5025083;28;20034;-70
2022/06/30 09:35:17;;;;;;;17.13;13.98;;;;;;;30.23;39.26;101202.06;5027692;28;20038;-70
2022/06/30 09:37:43;;;;;;;14.88;12.00;;;;;;;29.74;39.01;101201.22;5024395;28;20083;-69
2022/06/30 09:40:10;;;;;;;17.30;14.30;;;;;;;30.72;38.99;101194.47;5027115;28;20401;-73
2022/06/30 09:42:41;;;;;;;16.67;13.55;;;;;;;30.22;39.37;101204.03;5027037;28;20048;-70
2022/06/30 09:45:09;;;;;;;16.27;13.63;;;;;;;30.37;39.38;101196.97;5028390;28;20028;-70
2022/06/30 09:47:35;;;;;;;21.80;16.58;;;;;;;30.71;40.25;101195.63;5027857;28;20599;-68
2022/06/30 09:50:04;;;;;;;21.73;16.38;;;;;;;30.67;40.39;101200.25;5024705;28;20044;-70
2022/06/30 09:52:29;;;;;;;20.13;15.38;;;;;;;30.02;40.73;101201.34;5027393;28;20080;-71
2022/06/30 09:55:03;;;;;;;20.67;14.88;;;;;;;31.53;37.42;101203.13;5027723;28;20065;-70
2022/06/30 09:57:36;;;;;;;16.33;13.18;;;;;;;31.69;36.50;101203.16;5026910;28;20034;-71
2022/06/30 10:00:06;;;;;;;16.85;11.98;;;;;;;31.67;35.38;101208.25;5026998;28;20041;-71
2022/06/30 10:02:39;;;;;;;16.80;13.38;;;;;;;31.17;38.04;101209.66;5027178;28;20391;-70
2022/06/30 10:05:06;;;;;;;18.27;15.13;;;;;;;31.06;39.08;101202.22;5027085;28;20026;-69
2022/06/30 10:07:35;;;;;;;20.77;14.43;;;;;;;31.97;37.20;101204.72;5027700;28;20046;-69
2022/06/30 10:10:04;;;;;;;17.10;15.30;;;;;;;31.64;37.58;101204.25;5025636;28;20148;-71
2022/06/30 10:12:30;;;;;;;18.60;14.13;;;;;;;31.58;37.88;101199.28;5024718;28;20052;-69
2022/06/30 10:14:56;;;;;;;22.13;15.52;;;;;;;31.67;37.49;101206.28;5027231;28;20045;-70
2022/06/30 10:17:24;;;;;;;14.48;12.73;;;;;;;31.70;35.91;101208.38;5026338;28;20318;-70
2022/06/30 10:19:51;;;;;;;19.83;15.00;;;;;;;31.32;37.25;101194.22;5024757;28;20033;-69
2022/06/30 10:22:18;;;;;;;18.60;14.23;;;;;;;31.74;37.11;101208.44;5026175;28;20057;-71
2022/06/30 10:24:46;;;;;;;18.08;12.07;;;;;;;32.18;36.32;101206.38;5026584;28;20352;-69
2022/06/30 10:27:12;;;;;;;16.40;9.23;;;;;;;31.98;35.42;101205.50;5026969;28;20029;-69
2022/06/30 10:29:40;;;;;;;13.30;8.13;;;;;;;33.33;32.88;101205.31;5025228;28;20125;-69
2022/06/30 10:32:14;;;;;;;14.70;7.10;;;;;;;33.16;33.26;101210.56;5025794;28;20030;-71
2022/06/30 10:34:46;;;;;;;10.43;5.15;;;;;;;32.03;33.35;101205.22;5025952;28;20057;-68
2022/06/30 10:37:26;;;;;;;10.50;6.13;;;;;;;31.86;33.66;101205.59;5026352;28;20029;-69
2022/06/30 10:40:43;;;;;;;10.55;5.93;;;;;;;32.12;34.41;101213.41;5024379;28;20060;-70
2022/06/30 10:43:08;;;;;;;25.85;8.07;;;;;;;32.15;34.92;101198.75;5003602;28;20042;-69
2022/06/30 10:45:35;;;;;;;14.40;8.40;;;;;;;32.07;35.15;101203.34;5003376;28;20119;-70
2022/06/30 10:48:05;;;;;;;12.80;7.85;;;;;;;31.64;36.54;101207.03;5003937;28;20095;-71
2022/06/30 10:50:31;;;;;;;14.32;7.57;;;;;;;31.50;37.70;101203.06;5004206;28;20486;-70
2022/06/30 10:52:56;;;;;;;10.77;7.40;;;;;;;31.55;37.38;101208.34;4986367;28;20049;-71
2022/06/30 10:55:22;;;;;;;11.75;7.75;;;;;;;30.63;38.33;101200.16;5003243;28;20563;-73
2022/06/30 10:58:06;;;;;;;13.63;8.73;;;;;;;30.33;39.00;101206.34;5004216;28;20125;-72
2022/06/30 11:00:46;;;;;;;27.55;8.00;;;;;;;30.37;38.54;101201.72;5002814;28;20033;-70
2022/06/30 11:03:29;;;;;;;12.68;6.90;;;;;;;30.75;37.65;101204.84;5003656;28;20038;-70
2022/06/30 11:05:57;;;;;;;18.27;7.78;;;;;;;30.93;36.87;101209.00;5003469;28;20045;-71
2022/06/30 11:08:47;;;;;;;12.90;6.93;;;;;;;30.72;36.75;101213.91;5003443;28;20037;-72
2022/06/30 11:11:22;;;;;;;13.50;6.60;;;;;;;30.91;36.91;101211.31;4986721;28;20053;-69
2022/06/30 11:13:49;;;;;;;13.30;6.25;;;;;;;30.27;37.29;101216.81;5003773;28;20116;-71
2022/06/30 11:16:18;;;;;;;11.85;6.03;;;;;;;30.85;36.37;101219.09;5003299;28;20117;-70
2022/06/30 11:18:45;;;;;;;10.68;6.20;;;;;;;30.36;37.53;101219.50;5008896;28;20343;-69
2022/06/30 11:21:10;;;;;;;8.05;5.78;;;;;;;30.86;36.26;101223.47;5026630;28;20125;-71
2022/06/30 11:23:44;;;;;;;13.70;5.82;;;;;;;31.43;34.96;101220.34;5026846;28;20076;-70
2022/06/30 11:28:56;;;;;;;7.80;4.55;;;;;;;31.36;34.72;101217.34;5025912;28;20321;-69
2022/06/30 11:31:35;;;;;;;12.70;5.38;;;;;;;31.03;34.50;101214.84;5026309;28;20461;-71
2022/06/30 11:34:05;;;;;;;11.80;4.82;;;;;;;31.59;34.53;101218.38;5033975;28;20042;-71
2022/06/30 11:36:32;;;;;;;10.73;4.03;;;;;;;31.46;34.73;101219.63;5024824;28;20025;-71
2022/06/30 11:39:09;;;;;;;49.42;4.65;;;;;;;31.71;33.88;101220.28;5025047;28;20075;-71